sensor_id;sensor_type;location;lat;lon;timestamp;pressure;altitude;pressure_sealevel;temperature;humidity
71573;BME280;59408;51.032;9.410;2023-04-04T00:00:40;100282.09;;;-1.34;72.13
71573;BME280;59408;51.032;9.410;2023-04-04T00:03:07;100277.47;;;-1.39;71.47
71573;BME280;59408;51.032;9.410;2023-04-04T00:05:34;100273.59;;;-1.43;70.56
71573;BME280;59408;51.032;9.410;2023-04-04T00:08:00;100279.19;;;-1.45;70.00
71573;BME280;59408;51.032;9.410;2023-04-04T00:10:27;100276.50;;;-1.45;70.49
71573;BME280;59408;51.032;9.410;2023-04-04T00:12:55;100276.50;;;-1.45;70.98
71573;BME280;59408;51.032;9.410;2023-04-04T00:15:22;100278.34;;;-1.45;71.16
71573;BME280;59408;51.032;9.410;2023-04-04T00:17:49;100279.19;;;-1.45;70.41
71573;BME280;59408;51.032;9.410;2023-04-04T00:20:15;100274.41;;;-1.43;69.92
71573;BME280;59408;51.032;9.410;2023-04-04T00:22:42;100283.16;;;-1.47;70.58
71573;BME280;59408;51.032;9.410;2023-04-04T00:25:08;100266.72;;;-1.51;71.38
71573;BME280;59408;51.032;9.410;2023-04-04T00:27:35;100269.84;;;-1.54;70.81
71573;BME280;59408;51.032;9.410;2023-04-04T00:30:04;100275.19;;;-1.54;70.37
71573;BME280;59408;51.032;9.410;2023-04-04T00:32:31;100272.63;;;-1.60;71.75
71573;BME280;59408;51.032;9.410;2023-04-04T00:34:57;100272.28;;;-1.64;71.26
71573;BME280;59408;51.032;9.410;2023-04-04T00:37:24;100276.81;;;-1.64;71.64
71573;BME280;59408;51.032;9.410;2023-04-04T00:39:51;100274.38;;;-1.66;71.22
71573;BME280;59408;51.032;9.410;2023-04-04T00:42:17;100262.50;;;-1.70;72.40
71573;BME280;59408;51.032;9.410;2023-04-04T00:44:44;100271.22;;;-1.74;71.54
71573;BME280;59408;51.032;9.410;2023-04-04T00:47:13;100265.63;;;-1.73;71.03
71573;BME280;59408;51.032;9.410;2023-04-04T00:49:40;100262.59;;;-1.77;72.16
71573;BME280;59408;51.032;9.410;2023-04-04T00:52:06;100257.25;;;-1.77;70.96
71573;BME280;59408;51.032;9.410;2023-04-04T00:54:33;100263.41;;;-1.76;72.04
71573;BME280;59408;51.032;9.410;2023-04-04T00:57:01;100259.78;;;-1.82;71.59
71573;BME280;59408;51.032;9.410;2023-04-04T00:59:28;100262.69;;;-1.83;72.22
71573;BME280;59408;51.032;9.410;2023-04-04T01:01:55;100256.06;;;-1.81;71.49
71573;BME280;59408;51.032;9.410;2023-04-04T01:04:23;100268.59;;;-1.81;72.60
71573;BME280;59408;51.032;9.410;2023-04-04T01:06:50;100257.91;;;-1.81;72.32
71573;BME280;59408;51.032;9.410;2023-04-04T01:09:17;100259.66;;;-1.87;72.60
71573;BME280;59408;51.032;9.410;2023-04-04T01:11:44;100256.59;;;-1.90;72.84
71573;BME280;59408;51.032;9.410;2023-04-04T01:14:10;100259.28;;;-1.90;73.91
71573;BME280;59408;51.032;9.410;2023-04-04T01:16:37;100257.06;;;-1.93;73.51
71573;BME280;59408;51.032;9.410;2023-04-04T01:19:08;100256.47;;;-1.95;72.56
71573;BME280;59408;51.032;9.410;2023-04-04T01:21:38;100256.25;;;-1.94;73.14
71573;BME280;59408;51.032;9.410;2023-04-04T01:24:07;100253.44;;;-1.99;73.07
71573;BME280;59408;51.032;9.410;2023-04-04T01:26:36;100250.19;;;-2.01;73.32
71573;BME280;59408;51.032;9.410;2023-04-04T01:29:03;100247.16;;;-2.04;74.06
71573;BME280;59408;51.032;9.410;2023-04-04T01:31:34;100252.63;;;-1.99;72.76
71573;BME280;59408;51.032;9.410;2023-04-04T01:34:10;100253.69;;;-2.00;72.98
71573;BME280;59408;51.032;9.410;2023-04-04T01:36:42;100249.81;;;-2.04;73.34
71573;BME280;59408;51.032;9.410;2023-04-04T01:39:18;100250.63;;;-2.04;72.49
71573;BME280;59408;51.032;9.410;2023-04-04T01:41:49;100244.84;;;-2.01;72.40
71573;BME280;59408;51.032;9.410;2023-04-04T01:44:16;100238.91;;;-2.03;72.36
71573;BME280;59408;51.032;9.410;2023-04-04T01:46:43;100239.34;;;-2.06;73.10
71573;BME280;59408;51.032;9.410;2023-04-04T01:49:10;100233.41;;;-2.08;72.96
71573;BME280;59408;51.032;9.410;2023-04-04T01:51:37;100230.63;;;-2.13;73.67
71573;BME280;59408;51.032;9.410;2023-04-04T01:54:03;100235.38;;;-2.15;73.03
71573;BME280;59408;51.032;9.410;2023-04-04T01:56:30;100231.06;;;-2.16;72.93
71573;BME280;59408;51.032;9.410;2023-04-04T01:58:58;100225.38;;;-2.20;73.86
71573;BME280;59408;51.032;9.410;2023-04-04T02:01:24;100224.19;;;-2.24;74.00
71573;BME280;59408;51.032;9.410;2023-04-04T02:03:51;100229.41;;;-2.29;73.74
71573;BME280;59408;51.032;9.410;2023-04-04T02:06:18;100224.28;;;-2.30;73.58
71573;BME280;59408;51.032;9.410;2023-04-04T02:08:44;100228.41;;;-2.34;73.47
71573;BME280;59408;51.032;9.410;2023-04-04T02:11:11;100227.25;;;-2.38;74.59
71573;BME280;59408;51.032;9.410;2023-04-04T02:13:38;100221.75;;;-2.43;74.68
71573;BME280;59408;51.032;9.410;2023-04-04T02:16:06;100220.59;;;-2.47;74.50
71573;BME280;59408;51.032;9.410;2023-04-04T02:18:32;100226.97;;;-2.48;75.43
71573;BME280;59408;51.032;9.410;2023-04-04T02:20:59;100214.28;;;-2.53;77.94
71573;BME280;59408;51.032;9.410;2023-04-04T02:23:25;100221.13;;;-2.57;77.69
71573;BME280;59408;51.032;9.410;2023-04-04T02:25:52;100223.41;;;-2.61;76.70
71573;BME280;59408;51.032;9.410;2023-04-04T02:28:19;100224.00;;;-2.59;75.98
71573;BME280;59408;51.032;9.410;2023-04-04T02:30:45;100217.25;;;-2.61;76.38
71573;BME280;59408;51.032;9.410;2023-04-04T02:33:13;100217.84;;;-2.59;75.88
71573;BME280;59408;51.032;9.410;2023-04-04T02:35:40;100213.97;;;-2.63;75.92
71573;BME280;59408;51.032;9.410;2023-04-04T02:38:06;100218.50;;;-2.64;76.62
71573;BME280;59408;51.032;9.410;2023-04-04T02:40:33;100215.31;;;-2.72;77.75
71573;BME280;59408;51.032;9.410;2023-04-04T02:42:59;100203.47;;;-2.76;76.44
71573;BME280;59408;51.032;9.410;2023-04-04T02:45:26;100205.09;;;-2.75;76.63
71573;BME280;59408;51.032;9.410;2023-04-04T02:47:53;100198.34;;;-2.78;76.92
71573;BME280;59408;51.032;9.410;2023-04-04T02:50:21;100197.75;;;-2.80;77.24
71573;BME280;59408;51.032;9.410;2023-04-04T02:52:47;100187.75;;;-2.84;79.03
71573;BME280;59408;51.032;9.410;2023-04-04T02:55:14;100186.25;;;-2.99;82.25
71573;BME280;59408;51.032;9.410;2023-04-04T02:57:41;100178.41;;;-3.12;84.73
71573;BME280;59408;51.032;9.410;2023-04-04T03:00:08;100184.84;;;-3.19;84.29
71573;BME280;59408;51.032;9.410;2023-04-04T03:02:35;100181.19;;;-3.25;82.27
71573;BME280;59408;51.032;9.410;2023-04-04T03:05:02;100178.75;;;-3.27;81.13
71573;BME280;59408;51.032;9.410;2023-04-04T03:07:30;100190.31;;;-3.33;83.50
71573;BME280;59408;51.032;9.410;2023-04-04T03:09:56;100181.09;;;-3.37;84.38
71573;BME280;59408;51.032;9.410;2023-04-04T03:12:23;100182.78;;;-3.42;85.02
71573;BME280;59408;51.032;9.410;2023-04-04T03:14:49;100181.22;;;-3.50;85.12
71573;BME280;59408;51.032;9.410;2023-04-04T03:17:16;100189.06;;;-3.55;86.20
71573;BME280;59408;51.032;9.410;2023-04-04T03:19:43;100190.75;;;-3.60;86.53
71573;BME280;59408;51.032;9.410;2023-04-04T03:22:09;100189.31;;;-3.63;85.77
71573;BME280;59408;51.032;9.410;2023-04-04T03:24:37;100181.78;;;-3.66;86.68
71573;BME280;59408;51.032;9.410;2023-04-04T03:27:05;100181.19;;;-3.68;85.86
71573;BME280;59408;51.032;9.410;2023-04-04T03:29:32;100178.94;;;-3.71;86.19
71573;BME280;59408;51.032;9.410;2023-04-04T03:31:58;100181.25;;;-3.75;87.58
71573;BME280;59408;51.032;9.410;2023-04-04T03:34:25;100168.75;;;-3.81;87.47
71573;BME280;59408;51.032;9.410;2023-04-04T03:36:52;100181.72;;;-3.84;87.66
71573;BME280;59408;51.032;9.410;2023-04-04T03:39:18;100173.94;;;-3.86;87.52
71573;BME280;59408;51.032;9.410;2023-04-04T03:41:46;100177.25;;;-3.90;87.87
71573;BME280;59408;51.032;9.410;2023-04-04T03:44:13;100172.38;;;-3.93;88.72
71573;BME280;59408;51.032;9.410;2023-04-04T03:46:40;100168.50;;;-3.97;88.60
71573;BME280;59408;51.032;9.410;2023-04-04T03:49:06;100167.66;;;-3.98;88.42
71573;BME280;59408;51.032;9.410;2023-04-04T03:51:33;100169.16;;;-4.02;89.12
71573;BME280;59408;51.032;9.410;2023-04-04T03:54:00;100165.88;;;-4.04;88.53
71573;BME280;59408;51.032;9.410;2023-04-04T03:56:26;100172.03;;;-4.04;88.78
71573;BME280;59408;51.032;9.410;2023-04-04T03:58:55;100173.47;;;-4.08;89.71
71573;BME280;59408;51.032;9.410;2023-04-04T04:01:22;100174.94;;;-4.12;89.75
71573;BME280;59408;51.032;9.410;2023-04-04T04:03:48;100170.03;;;-4.15;89.98
71573;BME280;59408;51.032;9.410;2023-04-04T04:06:15;100167.38;;;-4.15;90.03
71573;BME280;59408;51.032;9.410;2023-04-04T04:08:42;100161.44;;;-4.17;90.67
71573;BME280;59408;51.032;9.410;2023-04-04T04:11:09;100166.41;;;-4.20;90.40
71573;BME280;59408;51.032;9.410;2023-04-04T04:13:35;100158.63;;;-4.22;90.67
71573;BME280;59408;51.032;9.410;2023-04-04T04:16:04;100155.34;;;-4.24;90.65
71573;BME280;59408;51.032;9.410;2023-04-04T04:18:31;100154.97;;;-4.27;91.69
71573;BME280;59408;51.032;9.410;2023-04-04T04:20:58;100151.09;;;-4.31;91.56
71573;BME280;59408;51.032;9.410;2023-04-04T04:23:25;100153.97;;;-4.33;92.26
71573;BME280;59408;51.032;9.410;2023-04-04T04:25:52;100141.06;;;-4.36;92.31
71573;BME280;59408;51.032;9.410;2023-04-04T04:28:18;100140.91;;;-4.41;92.26
71573;BME280;59408;51.032;9.410;2023-04-04T04:30:45;100135.81;;;-4.43;93.17
71573;BME280;59408;51.032;9.410;2023-04-04T04:33:13;100127.66;;;-4.48;93.06
71573;BME280;59408;51.032;9.410;2023-04-04T04:35:40;100130.31;;;-4.48;93.38
71573;BME280;59408;51.032;9.410;2023-04-04T04:38:06;100124.38;;;-4.50;93.33
71573;BME280;59408;51.032;9.410;2023-04-04T04:40:33;100128.69;;;-4.49;92.87
71573;BME280;59408;51.032;9.410;2023-04-04T04:43:00;100128.69;;;-4.49;93.36
71573;BME280;59408;51.032;9.410;2023-04-04T04:45:26;100129.91;;;-4.51;92.49
71573;BME280;59408;51.032;9.410;2023-04-04T04:47:53;100126.66;;;-4.53;92.55
71573;BME280;59408;51.032;9.410;2023-04-04T04:50:21;100134.25;;;-4.57;92.55
71573;BME280;59408;51.032;9.410;2023-04-04T04:52:49;100133.84;;;-4.60;92.63
71573;BME280;59408;51.032;9.410;2023-04-04T04:55:15;100141.22;;;-4.62;92.61
71573;BME280;59408;51.032;9.410;2023-04-04T04:57:42;100145.97;;;-4.64;93.20
71573;BME280;59408;51.032;9.410;2023-04-04T05:00:10;100145.56;;;-4.68;93.75
71573;BME280;59408;51.032;9.410;2023-04-04T05:02:36;100152.75;;;-4.68;94.73
71573;BME280;59408;51.032;9.410;2023-04-04T05:05:04;100149.06;;;-4.67;94.44
71573;BME280;59408;51.032;9.410;2023-04-04T05:07:32;100151.31;;;-4.71;94.42
71573;BME280;59408;51.032;9.410;2023-04-04T05:09:58;100151.31;;;-4.71;95.02
71573;BME280;59408;51.032;9.410;2023-04-04T05:12:25;100152.94;;;-4.70;95.09
71573;BME280;59408;51.032;9.410;2023-04-04T05:14:52;100157.03;;;-4.67;95.46
71573;BME280;59408;51.032;9.410;2023-04-04T05:17:18;100153.34;;;-4.66;96.27
71573;BME280;59408;51.032;9.410;2023-04-04T05:19:45;100158.47;;;-4.65;96.47
71573;BME280;59408;51.032;9.410;2023-04-04T05:22:11;100160.88;;;-4.63;96.48
71573;BME280;59408;51.032;9.410;2023-04-04T05:24:40;100159.44;;;-4.59;96.18
71573;BME280;59408;51.032;9.410;2023-04-04T05:27:06;100149.22;;;-4.56;96.11
71573;BME280;59408;51.032;9.410;2023-04-04T05:29:33;100159.19;;;-4.51;95.71
71573;BME280;59408;51.032;9.410;2023-04-04T05:32:00;100160.41;;;-4.47;95.25
71573;BME280;59408;51.032;9.410;2023-04-04T05:34:26;100161.41;;;-4.42;95.00
71573;BME280;59408;51.032;9.410;2023-04-04T05:36:53;100166.69;;;-4.35;94.73
71573;BME280;59408;51.032;9.410;2023-04-04T05:39:19;100162.94;;;-4.27;95.17
71573;BME280;59408;51.032;9.410;2023-04-04T05:41:47;100168.03;;;-4.19;94.68
71573;BME280;59408;51.032;9.410;2023-04-04T05:44:14;100165.31;;;-4.13;94.45
71573;BME280;59408;51.032;9.410;2023-04-04T05:46:41;100178.19;;;-4.03;94.36
71573;BME280;59408;51.032;9.410;2023-04-04T05:49:07;100170.94;;;-3.96;93.29
71573;BME280;59408;51.032;9.410;2023-04-04T05:51:34;100170.06;;;-3.90;93.26
71573;BME280;59408;51.032;9.410;2023-04-04T05:54:00;100172.69;;;-3.83;93.47
71573;BME280;59408;51.032;9.410;2023-04-04T05:56:27;100181.25;;;-3.75;92.79
71573;BME280;59408;51.032;9.410;2023-04-04T05:58:55;100182.81;;;-3.67;91.71
71573;BME280;59408;51.032;9.410;2023-04-04T06:01:22;100186.16;;;-3.53;91.24
71573;BME280;59408;51.032;9.410;2023-04-04T06:03:48;100189.97;;;-3.43;90.21
71573;BME280;59408;51.032;9.410;2023-04-04T06:06:15;100194.81;;;-3.33;89.53
71573;BME280;59408;51.032;9.410;2023-04-04T06:08:42;100190.41;;;-3.21;89.29
71573;BME280;59408;51.032;9.410;2023-04-04T06:11:15;100194.34;;;-3.05;88.20
71573;BME280;59408;51.032;9.410;2023-04-04T06:13:42;100201.97;;;-2.91;88.31
71573;BME280;59408;51.032;9.410;2023-04-04T06:16:10;100196.28;;;-2.76;85.59
71573;BME280;59408;51.032;9.410;2023-04-04T06:18:37;100203.28;;;-2.63;83.52
71573;BME280;59408;51.032;9.410;2023-04-04T06:21:03;100201.28;;;-2.49;81.47
71573;BME280;59408;51.032;9.410;2023-04-04T06:23:30;100212.84;;;-2.37;80.85
71573;BME280;59408;51.032;9.410;2023-04-04T06:25:57;100209.34;;;-2.20;80.67
71573;BME280;59408;51.032;9.410;2023-04-04T06:28:23;100210.53;;;-2.04;79.12
71573;BME280;59408;51.032;9.410;2023-04-04T06:30:50;100211.16;;;-1.90;78.76
71573;BME280;59408;51.032;9.410;2023-04-04T06:33:18;100214.00;;;-1.73;79.37
71573;BME280;59408;51.032;9.410;2023-04-04T06:35:44;100210.19;;;-1.66;78.30
71573;BME280;59408;51.032;9.410;2023-04-04T06:38:11;100208.31;;;-1.54;79.48
71573;BME280;59408;51.032;9.410;2023-04-04T06:40:38;100213.00;;;-1.38;79.74
71573;BME280;59408;51.032;9.410;2023-04-04T06:43:05;100211.88;;;-1.18;78.73
71573;BME280;59408;51.032;9.410;2023-04-04T06:45:32;100207.66;;;-1.14;76.90
71573;BME280;59408;51.032;9.410;2023-04-04T06:47:59;100213.47;;;-1.17;76.95
71573;BME280;59408;51.032;9.410;2023-04-04T06:50:29;100212.06;;;-1.08;77.95
71573;BME280;59408;51.032;9.410;2023-04-04T06:52:56;100217.66;;;-0.98;77.21
71573;BME280;59408;51.032;9.410;2023-04-04T06:55:23;100213.09;;;-0.86;77.32
71573;BME280;59408;51.032;9.410;2023-04-04T06:57:50;100214.38;;;-0.77;76.54
71573;BME280;59408;51.032;9.410;2023-04-04T07:00:17;100212.59;;;-0.71;75.58
71573;BME280;59408;51.032;9.410;2023-04-04T07:02:43;100212.59;;;-0.71;75.49
71573;BME280;59408;51.032;9.410;2023-04-04T07:05:10;100218.66;;;-0.64;76.51
71573;BME280;59408;51.032;9.410;2023-04-04T07:07:38;100208.94;;;-0.53;76.99
71573;BME280;59408;51.032;9.410;2023-04-04T07:10:05;100208.72;;;-0.52;77.44
71573;BME280;59408;51.032;9.410;2023-04-04T07:12:32;100213.47;;;-0.42;77.05
71573;BME280;59408;51.032;9.410;2023-04-04T07:14:59;100212.28;;;-0.35;76.63
71573;BME280;59408;51.032;9.410;2023-04-04T07:17:25;100211.53;;;-0.18;77.71
71573;BME280;59408;51.032;9.410;2023-04-04T07:19:52;100217.44;;;-0.16;78.03
71573;BME280;59408;51.032;9.410;2023-04-04T07:22:19;100226.19;;;-0.09;76.91
71573;BME280;59408;51.032;9.410;2023-04-04T07:24:47;100216.91;;;-0.18;77.20
71573;BME280;59408;51.032;9.410;2023-04-04T07:27:13;100221.88;;;-0.10;76.55
71573;BME280;59408;51.032;9.410;2023-04-04T07:29:40;100219.28;;;-0.05;77.81
71573;BME280;59408;51.032;9.410;2023-04-04T07:32:07;100219.13;;;0.01;78.10
71573;BME280;59408;51.032;9.410;2023-04-04T07:34:33;100223.47;;;0.19;76.24
71573;BME280;59408;51.032;9.410;2023-04-04T07:37:00;100219.84;;;0.42;75.63
71573;BME280;59408;51.032;9.410;2023-04-04T07:39:26;100218.16;;;0.53;74.41
71573;BME280;59408;51.032;9.410;2023-04-04T07:41:54;100227.81;;;0.70;74.07
71573;BME280;59408;51.032;9.410;2023-04-04T07:44:21;100223.94;;;0.61;74.26
71573;BME280;59408;51.032;9.410;2023-04-04T07:46:47;100216.09;;;0.60;75.10
71573;BME280;59408;51.032;9.410;2023-04-04T07:49:32;100218.53;;;0.78;74.77
71573;BME280;59408;51.032;9.410;2023-04-04T07:51:58;100227.81;;;0.70;75.21
71573;BME280;59408;51.032;9.410;2023-04-04T07:54:25;100222.03;;;0.95;75.11
71573;BME280;59408;51.032;9.410;2023-04-04T07:56:51;100220.50;;;1.21;73.39
71573;BME280;59408;51.032;9.410;2023-04-04T07:59:19;100212.50;;;1.48;72.12
71573;BME280;59408;51.032;9.410;2023-04-04T08:01:46;100207.19;;;1.75;68.67
71573;BME280;59408;51.032;9.410;2023-04-04T08:04:13;100211.22;;;2.26;65.80
71573;BME280;59408;51.032;9.410;2023-04-04T08:06:40;100217.13;;;2.55;67.50
71573;BME280;59408;51.032;9.410;2023-04-04T08:09:06;100211.84;;;3.07;67.46
71573;BME280;59408;51.032;9.410;2023-04-04T08:11:33;100219.59;;;3.45;64.20
71573;BME280;59408;51.032;9.410;2023-04-04T08:13:59;100215.16;;;3.86;60.87
71573;BME280;59408;51.032;9.410;2023-04-04T08:16:28;100215.25;;;4.17;55.65
71573;BME280;59408;51.032;9.410;2023-04-04T08:18:54;100208.69;;;3.93;54.65
71573;BME280;59408;51.032;9.410;2023-04-04T08:21:22;100203.56;;;3.81;55.77
71573;BME280;59408;51.032;9.410;2023-04-04T08:23:48;100208.97;;;3.91;54.96
71573;BME280;59408;51.032;9.410;2023-04-04T08:26:15;100207.66;;;4.09;55.42
71573;BME280;59408;51.032;9.410;2023-04-04T08:28:41;100210.13;;;4.36;53.57
71573;BME280;59408;51.032;9.410;2023-04-04T08:31:08;100210.41;;;4.44;53.05
71573;BME280;59408;51.032;9.410;2023-04-04T08:33:36;100196.88;;;4.64;52.08
71573;BME280;59408;51.032;9.410;2023-04-04T08:36:13;100201.75;;;5.08;52.27
71573;BME280;59408;51.032;9.410;2023-04-04T08:38:40;100205.38;;;5.58;52.88
71573;BME280;59408;51.032;9.410;2023-04-04T08:41:06;100197.69;;;5.80;52.57
71573;BME280;59408;51.032;9.410;2023-04-04T08:43:34;100201.81;;;6.11;51.70
71573;BME280;59408;51.032;9.410;2023-04-04T08:46:03;100197.69;;;6.63;49.99
71573;BME280;59408;51.032;9.410;2023-04-04T08:48:31;100201.69;;;6.66;50.07
71573;BME280;59408;51.032;9.410;2023-04-04T08:51:02;100188.84;;;7.34;49.74
71573;BME280;59408;51.032;9.410;2023-04-04T08:53:30;100194.72;;;7.65;47.21
71573;BME280;59408;51.032;9.410;2023-04-04T08:55:58;100188.41;;;7.70;47.13
71573;BME280;59408;51.032;9.410;2023-04-04T08:58:26;100201.50;;;8.05;47.71
71573;BME280;59408;51.032;9.410;2023-04-04T09:00:52;100201.38;;;7.54;44.81
71573;BME280;59408;51.032;9.410;2023-04-04T09:03:23;100204.09;;;8.15;45.25
71573;BME280;59408;51.032;9.410;2023-04-04T09:05:50;100201.91;;;8.17;46.21
71573;BME280;59408;51.032;9.410;2023-04-04T09:08:18;100198.56;;;8.20;45.09
71573;BME280;59408;51.032;9.410;2023-04-04T09:10:45;100190.78;;;8.32;42.76
71573;BME280;59408;51.032;9.410;2023-04-04T09:13:13;100193.44;;;7.81;44.11
71573;BME280;59408;51.032;9.410;2023-04-04T09:15:45;100200.88;;;6.99;45.66
71573;BME280;59408;51.032;9.410;2023-04-04T09:18:12;100193.63;;;6.61;47.42
71573;BME280;59408;51.032;9.410;2023-04-04T09:20:39;100194.22;;;6.19;46.83
71573;BME280;59408;51.032;9.410;2023-04-04T09:23:08;100201.72;;;6.95;49.26
71573;BME280;59408;51.032;9.410;2023-04-04T09:25:37;100191.72;;;7.43;46.94
71573;BME280;59408;51.032;9.410;2023-04-04T09:28:26;100197.78;;;8.01;46.83
71573;BME280;59408;51.032;9.410;2023-04-04T09:30:53;100193.06;;;8.25;45.82
71573;BME280;59408;51.032;9.410;2023-04-04T09:33:21;100190.38;;;8.58;45.07
71573;BME280;59408;51.032;9.410;2023-04-04T09:35:51;100191.94;;;8.45;44.52
71573;BME280;59408;51.032;9.410;2023-04-04T09:38:20;100187.28;;;8.64;44.49
71573;BME280;59408;51.032;9.410;2023-04-04T09:40:49;100185.50;;;8.73;44.19
71573;BME280;59408;51.032;9.410;2023-04-04T09:43:16;100196.31;;;8.27;42.90
71573;BME280;59408;51.032;9.410;2023-04-04T09:45:44;100187.56;;;8.95;45.16
71573;BME280;59408;51.032;9.410;2023-04-04T09:48:11;100188.66;;;9.54;42.25
71573;BME280;59408;51.032;9.410;2023-04-04T09:50:45;100185.00;;;9.59;41.98
71573;BME280;59408;51.032;9.410;2023-04-04T09:53:15;100183.78;;;9.51;43.09
71573;BME280;59408;51.032;9.410;2023-04-04T09:55:49;100192.00;;;9.05;42.37
71573;BME280;59408;51.032;9.410;2023-04-04T09:58:17;100179.94;;;9.38;42.98
71573;BME280;59408;51.032;9.410;2023-04-04T10:00:45;100189.03;;;9.34;42.05
71573;BME280;59408;51.032;9.410;2023-04-04T10:03:13;100177.34;;;9.61;42.40
71573;BME280;59408;51.032;9.410;2023-04-04T10:05:40;100182.09;;;9.55;40.52
71573;BME280;59408;51.032;9.410;2023-04-04T10:08:14;100181.97;;;9.60;40.19
71573;BME280;59408;51.032;9.410;2023-04-04T10:10:45;100184.31;;;9.53;42.38
71573;BME280;59408;51.032;9.410;2023-04-04T10:13:30;100181.34;;;9.91;41.74
71573;BME280;59408;51.032;9.410;2023-04-04T10:15:58;100184.50;;;10.06;41.38
71573;BME280;59408;51.032;9.410;2023-04-04T10:18:26;100183.59;;;9.61;41.38
71573;BME280;59408;51.032;9.410;2023-04-04T10:20:54;100183.63;;;8.88;42.79
71573;BME280;59408;51.032;9.410;2023-04-04T10:23:40;100183.19;;;9.54;41.27
71573;BME280;59408;51.032;9.410;2023-04-04T10:26:07;100172.34;;;9.76;42.92
71573;BME280;59408;51.032;9.410;2023-04-04T10:28:35;100169.88;;;9.25;41.81
71573;BME280;59408;51.032;9.410;2023-04-04T10:31:10;100177.59;;;8.91;42.99
71573;BME280;59408;51.032;9.410;2023-04-04T10:33:45;100167.47;;;9.24;43.26
71573;BME280;59408;51.032;9.410;2023-04-04T10:36:15;100172.91;;;9.37;45.00
71573;BME280;59408;51.032;9.410;2023-04-04T10:38:54;100158.34;;;9.83;42.26
71573;BME280;59408;51.032;9.410;2023-04-04T10:41:24;100161.31;;;10.76;41.61
71573;BME280;59408;51.032;9.410;2023-04-04T10:43:55;100161.41;;;10.93;40.85
71573;BME280;59408;51.032;9.410;2023-04-04T10:46:26;100159.31;;;10.90;38.64
71573;BME280;59408;51.032;9.410;2023-04-04T10:48:55;100160.31;;;10.72;39.09
71573;BME280;59408;51.032;9.410;2023-04-04T10:51:23;100148.53;;;11.24;39.37
71573;BME280;59408;51.032;9.410;2023-04-04T10:53:50;100152.97;;;11.60;38.51
71573;BME280;59408;51.032;9.410;2023-04-04T10:56:18;100150.59;;;11.10;38.14
71573;BME280;59408;51.032;9.410;2023-04-04T10:58:44;100154.19;;;10.97;41.65
71573;BME280;59408;51.032;9.410;2023-04-04T11:01:12;100141.84;;;11.48;39.68
71573;BME280;59408;51.032;9.410;2023-04-04T11:04:15;100142.88;;;10.59;35.88
71573;BME280;59408;51.032;9.410;2023-04-04T11:07:11;100133.16;;;10.44;39.09
71573;BME280;59408;51.032;9.410;2023-04-04T11:09:46;100128.00;;;10.65;39.70
71573;BME280;59408;51.032;9.410;2023-04-04T11:12:13;100121.84;;;11.21;40.42
71573;BME280;59408;51.032;9.410;2023-04-04T11:14:53;100129.31;;;10.98;38.46
71573;BME280;59408;51.032;9.410;2023-04-04T11:17:39;100124.69;;;11.56;38.36
71573;BME280;59408;51.032;9.410;2023-04-04T11:20:07;100116.81;;;11.54;38.72
71573;BME280;59408;51.032;9.410;2023-04-04T11:22:34;100119.78;;;12.27;38.22
71573;BME280;59408;51.032;9.410;2023-04-04T11:25:24;100114.91;;;11.89;38.03
71573;BME280;59408;51.032;9.410;2023-04-04T11:27:53;100109.13;;;11.82;37.83
71573;BME280;59408;51.032;9.410;2023-04-04T11:30:19;100109.91;;;12.52;36.27
71573;BME280;59408;51.032;9.410;2023-04-04T11:32:48;100113.31;;;12.23;39.39
71573;BME280;59408;51.032;9.410;2023-04-04T11:35:31;100104.78;;;12.97;39.20
71573;BME280;59408;51.032;9.410;2023-04-04T11:37:59;100109.13;;;11.65;38.09
71573;BME280;59408;51.032;9.410;2023-04-04T11:40:34;100107.41;;;10.59;40.74
71573;BME280;59408;51.032;9.410;2023-04-04T11:43:06;100105.97;;;10.84;42.28
71573;BME280;59408;51.032;9.410;2023-04-04T11:45:34;100089.31;;;11.59;43.28
71573;BME280;59408;51.032;9.410;2023-04-04T11:48:02;100101.38;;;11.67;38.19
71573;BME280;59408;51.032;9.410;2023-04-04T11:50:33;100098.19;;;11.73;40.23
71573;BME280;59408;51.032;9.410;2023-04-04T11:53:04;100083.06;;;12.02;37.31
71573;BME280;59408;51.032;9.410;2023-04-04T11:55:31;100087.88;;;12.31;39.95
71573;BME280;59408;51.032;9.410;2023-04-04T11:58:04;100083.22;;;12.86;38.67
71573;BME280;59408;51.032;9.410;2023-04-04T12:00:32;100077.16;;;12.81;36.59
71573;BME280;59408;51.032;9.410;2023-04-04T12:02:59;100078.63;;;13.37;36.87
71573;BME280;59408;51.032;9.410;2023-04-04T12:05:28;100076.16;;;13.53;35.82
71573;BME280;59408;51.032;9.410;2023-04-04T12:07:55;100078.22;;;13.77;35.07
71573;BME280;59408;51.032;9.410;2023-04-04T12:10:23;100066.84;;;13.66;36.16
71573;BME280;59408;51.032;9.410;2023-04-04T12:12:49;100074.50;;;13.81;36.88
71573;BME280;59408;51.032;9.410;2023-04-04T12:15:16;100066.38;;;13.85;35.31
71573;BME280;59408;51.032;9.410;2023-04-04T12:17:44;100068.31;;;14.05;38.63
71573;BME280;59408;51.032;9.410;2023-04-04T12:20:14;100077.69;;;14.37;36.66
71573;BME280;59408;51.032;9.410;2023-04-04T12:22:42;100063.50;;;14.02;33.84
71573;BME280;59408;51.032;9.410;2023-04-04T12:25:09;100047.97;;;13.14;35.29
71573;BME280;59408;51.032;9.410;2023-04-04T12:27:37;100042.91;;;13.75;35.14
71573;BME280;59408;51.032;9.410;2023-04-04T12:30:04;100054.69;;;14.29;36.63
71573;BME280;59408;51.032;9.410;2023-04-04T12:32:31;100046.13;;;14.88;35.08
71573;BME280;59408;51.032;9.410;2023-04-04T12:34:59;100038.81;;;14.92;33.36
71573;BME280;59408;51.032;9.410;2023-04-04T12:37:28;100056.44;;;14.13;36.58
71573;BME280;59408;51.032;9.410;2023-04-04T12:39:56;100037.22;;;13.59;33.86
71573;BME280;59408;51.032;9.410;2023-04-04T12:42:24;100041.75;;;14.30;35.58
71573;BME280;59408;51.032;9.410;2023-04-04T12:44:52;100043.91;;;14.24;36.35
71573;BME280;59408;51.032;9.410;2023-04-04T12:47:18;100042.84;;;13.84;37.09
71573;BME280;59408;51.032;9.410;2023-04-04T12:49:46;100029.13;;;13.84;37.57
71573;BME280;59408;51.032;9.410;2023-04-04T12:52:16;100025.88;;;14.35;36.61
71573;BME280;59408;51.032;9.410;2023-04-04T12:54:44;100027.47;;;14.82;35.30
71573;BME280;59408;51.032;9.410;2023-04-04T12:57:19;100021.03;;;13.67;33.12